createdAt,value
2019-01-27T00:02:08.083Z,4.87
2019-01-27T00:04:36.365Z,5.12
2019-01-27T00:07:04.639Z,23.02
2019-01-27T00:09:32.975Z,5.75
2019-01-27T00:12:01.249Z,7.65
2019-01-27T00:14:29.523Z,4.47
2019-01-27T00:16:57.899Z,7.70
2019-01-27T00:19:26.190Z,6.15
2019-01-27T00:21:54.640Z,3.72
2019-01-27T00:24:22.951Z,5.78
2019-01-27T00:26:51.230Z,4.53
2019-01-27T00:29:19.509Z,6.58
2019-01-27T00:31:47.834Z,4.90
2019-01-27T00:34:16.161Z,3.30
2019-01-27T00:36:44.446Z,6.20
2019-01-27T00:39:12.759Z,8.55
2019-01-27T00:41:41.041Z,6.25
2019-01-27T00:44:09.309Z,4.22
2019-01-27T00:46:37.626Z,6.33
2019-01-27T00:49:05.921Z,7.03
2019-01-27T00:51:34.201Z,3.33
2019-01-27T00:54:02.508Z,6.10
2019-01-27T00:56:30.788Z,10.38
2019-01-27T00:58:59.066Z,3.37
2019-01-27T01:01:27.381Z,3.95
2019-01-27T01:03:55.662Z,8.33
2019-01-27T01:06:23.940Z,3.70
2019-01-27T01:08:52.320Z,7.72
2019-01-27T01:11:20.679Z,9.13
2019-01-27T01:13:48.958Z,4.95
2019-01-27T01:16:17.278Z,9.28
2019-01-27T01:18:45.621Z,6.03
2019-01-27T01:21:13.898Z,5.78
2019-01-27T01:23:42.209Z,7.33
2019-01-27T01:26:10.479Z,8.10
2019-01-27T01:28:38.758Z,7.65
2019-01-27T01:31:07.090Z,10.35
2019-01-27T01:33:35.363Z,3.70
2019-01-27T01:36:03.634Z,5.75
2019-01-27T01:38:31.955Z,7.80
2019-01-27T01:41:00.234Z,5.97
2019-01-27T01:43:28.516Z,3.83
2019-01-27T01:45:56.839Z,6.25
2019-01-27T01:48:26.441Z,7.83
2019-01-27T01:50:54.721Z,10.48
2019-01-27T01:53:23.025Z,9.05
2019-01-27T01:55:51.313Z,7.62
2019-01-27T01:58:19.657Z,7.75
2019-01-27T02:00:47.971Z,11.08
2019-01-27T02:03:16.257Z,7.75
2019-01-27T02:05:44.607Z,6.20
2019-01-27T02:08:12.916Z,7.80
2019-01-27T02:10:41.198Z,7.62
2019-01-27T02:13:09.471Z,9.05
2019-01-27T02:15:41.045Z,11.05
2019-01-27T02:18:09.323Z,10.88
2019-01-27T02:20:37.602Z,6.12
2019-01-27T02:23:05.913Z,9.40
2019-01-27T02:25:34.193Z,7.95
2019-01-27T02:28:02.476Z,8.68
2019-01-27T02:30:30.800Z,13.75
2019-01-27T02:32:59.081Z,8.43
2019-01-27T02:38:27.523Z,10.23
2019-01-27T02:40:55.809Z,11.22
2019-01-27T02:43:24.101Z,5.87
2019-01-27T02:45:52.399Z,9.98
2019-01-27T02:48:20.673Z,3.90
2019-01-27T02:50:48.962Z,4.28
2019-01-27T02:53:17.286Z,8.25
2019-01-27T02:55:45.572Z,5.92
2019-01-27T02:58:13.850Z,8.05
2019-01-27T03:00:42.239Z,10.68
2019-01-27T03:03:11.088Z,10.95
2019-01-27T03:05:52.774Z,7.85
2019-01-27T03:08:21.125Z,9.98
2019-01-27T03:10:49.402Z,9.10
2019-01-27T03:13:17.777Z,6.15
2019-01-27T03:15:46.066Z,9.60
2019-01-27T03:18:14.323Z,7.58
2019-01-27T03:20:42.637Z,13.98
2019-01-27T03:23:10.914Z,6.83
2019-01-27T03:25:39.198Z,8.18
2019-01-27T03:28:07.517Z,10.45
2019-01-27T03:30:35.870Z,6.80
2019-01-27T03:33:04.128Z,7.15
2019-01-27T03:35:32.433Z,7.17
2019-01-27T03:38:00.707Z,5.28
2019-01-27T03:40:28.988Z,11.73
2019-01-27T03:42:57.304Z,8.80
2019-01-27T03:45:25.586Z,13.20
2019-01-27T03:47:53.926Z,11.78
2019-01-27T03:50:22.313Z,7.33
2019-01-27T03:52:50.588Z,7.70
2019-01-27T03:55:27.036Z,8.73
2019-01-27T03:57:55.350Z,8.75
2019-01-27T04:00:24.418Z,9.58
2019-01-27T04:02:52.654Z,6.90
2019-01-27T04:05:21.190Z,6.40
2019-01-27T04:07:49.685Z,7.55
2019-01-27T04:10:22.597Z,8.18
2019-01-27T04:12:50.931Z,5.83
2019-01-27T04:15:19.267Z,8.90
2019-01-27T04:17:47.563Z,11.70
2019-01-27T04:20:18.465Z,9.65
2019-01-27T04:22:46.741Z,8.93
2019-01-27T04:25:15.456Z,7.87
2019-01-27T04:27:43.763Z,8.90
2019-01-27T04:30:15.041Z,7.75
2019-01-27T04:32:43.310Z,9.93
2019-01-27T04:35:12.247Z,9.18
2019-01-27T04:37:40.544Z,9.45
2019-01-27T04:40:11.825Z,6.25
2019-01-27T04:42:40.138Z,4.85
2019-01-27T04:45:11.620Z,4.50
2019-01-27T04:47:39.896Z,5.10
2019-01-27T04:50:11.108Z,9.53
2019-01-27T04:52:39.391Z,9.60
2019-01-27T04:55:13.244Z,5.87
2019-01-27T04:57:41.561Z,12.07
2019-01-27T05:00:16.206Z,9.60
2019-01-27T05:02:46.192Z,6.47
2019-01-27T05:05:14.473Z,12.88
2019-01-27T05:07:42.754Z,5.87
2019-01-27T05:10:13.177Z,16.95
2019-01-27T05:12:41.440Z,8.28
2019-01-27T05:15:17.609Z,13.00
2019-01-27T05:17:45.885Z,5.17
2019-01-27T05:20:14.162Z,12.88
2019-01-27T05:22:42.473Z,8.15
2019-01-27T05:25:15.680Z,8.80
2019-01-27T05:27:43.960Z,11.95
2019-01-27T05:30:23.093Z,4.47
2019-01-27T05:32:51.375Z,5.25
2019-01-27T05:35:19.659Z,6.67
2019-01-27T05:37:47.968Z,7.15
2019-01-27T05:40:18.446Z,7.05
2019-01-27T05:42:46.744Z,10.60
2019-01-27T05:45:17.259Z,5.62
2019-01-27T05:47:45.531Z,9.08
2019-01-27T05:50:14.845Z,12.43
2019-01-27T05:52:43.169Z,13.38
2019-01-27T05:55:16.328Z,7.37
2019-01-27T05:57:44.605Z,6.80
2019-01-27T06:00:20.218Z,15.72
2019-01-27T06:02:48.563Z,9.10
2019-01-27T06:05:16.837Z,9.18
2019-01-27T06:07:45.157Z,16.17
2019-01-27T06:10:13.702Z,13.95
2019-01-27T06:12:41.985Z,14.33
2019-01-27T06:15:13.044Z,13.83
2019-01-27T06:17:41.317Z,6.65
2019-01-27T06:20:12.242Z,12.88
2019-01-27T06:22:40.803Z,13.43
2019-01-27T06:25:11.529Z,11.33
2019-01-27T06:27:39.801Z,18.12
2019-01-27T06:30:14.205Z,9.43
2019-01-27T06:33:00.036Z,9.20
2019-01-27T06:35:28.533Z,18.55
2019-01-27T06:37:56.831Z,16.77
2019-01-27T06:40:25.111Z,26.95
2019-01-27T06:42:53.431Z,9.35
2019-01-27T06:45:21.781Z,10.15
2019-01-27T06:47:50.068Z,14.63
2019-01-27T06:50:18.401Z,24.70
2019-01-27T06:52:46.696Z,21.15
2019-01-27T06:55:17.599Z,18.82
2019-01-27T06:57:45.928Z,15.70
2019-01-27T07:00:27.491Z,19.57
2019-01-27T07:02:57.522Z,20.70
2019-01-27T07:05:27.442Z,20.12
2019-01-27T07:08:06.121Z,14.40
2019-01-27T07:10:41.577Z,12.93
2019-01-27T07:13:11.551Z,15.13
2019-01-27T07:15:47.027Z,18.90
2019-01-27T07:18:19.680Z,16.48
2019-01-27T07:20:52.743Z,20.15
2019-01-27T07:23:28.490Z,24.30
2019-01-27T07:26:01.409Z,18.52
2019-01-27T07:28:31.331Z,18.30
2019-01-27T07:31:19.205Z,15.95
2019-01-27T07:33:51.547Z,21.68
2019-01-27T07:36:21.466Z,15.95
2019-01-27T07:39:01.042Z,17.65
2019-01-27T07:41:36.451Z,15.25
2019-01-27T07:44:21.573Z,16.23
2019-01-27T07:46:51.495Z,18.82
2019-01-27T07:49:30.188Z,16.97
2019-01-27T07:52:08.684Z,15.32
2019-01-27T07:54:47.730Z,11.03
2019-01-27T07:57:33.837Z,19.75
2019-01-27T08:00:06.505Z,12.55
2019-01-27T08:02:42.182Z,13.53
2019-01-27T08:05:24.377Z,20.52
2019-01-27T08:08:00.057Z,12.05
2019-01-27T08:10:32.946Z,16.67
2019-01-27T08:13:11.677Z,13.22
2019-01-27T08:15:44.430Z,24.05
2019-01-27T08:18:16.804Z,17.35
2019-01-27T08:20:49.480Z,23.05
2019-01-27T08:23:22.163Z,27.60
2019-01-27T08:25:58.310Z,21.20
2019-01-27T08:28:31.257Z,17.07
2019-01-27T08:31:13.039Z,17.05
2019-01-27T08:33:45.669Z,19.12
2019-01-27T08:36:18.424Z,15.78
2019-01-27T08:38:48.498Z,18.55
2019-01-27T08:41:34.869Z,17.45
2019-01-27T08:44:10.858Z,17.32
2019-01-27T08:46:40.822Z,29.45
2019-01-27T08:49:09.321Z,21.60
2019-01-27T08:51:37.607Z,13.03
2019-01-27T08:54:06.153Z,17.87
2019-01-27T08:56:34.526Z,15.10
2019-01-27T08:59:02.880Z,15.40
2019-01-27T09:01:49.173Z,15.25
2019-01-27T09:04:19.174Z,15.43
2019-01-27T09:06:57.766Z,15.68
2019-01-27T09:09:36.854Z,19.65
2019-01-27T09:12:18.809Z,11.53
2019-01-27T09:14:48.890Z,24.50
2019-01-27T09:17:30.687Z,10.68
2019-01-27T09:20:06.222Z,19.23
2019-01-27T09:22:38.929Z,19.50
2019-01-27T09:25:18.787Z,17.42
2019-01-27T09:28:03.725Z,20.40
2019-01-27T09:30:49.914Z,24.67
2019-01-27T09:33:32.073Z,16.40
2019-01-27T09:36:18.169Z,16.63
2019-01-27T09:41:42.262Z,12.57
2019-01-27T09:44:15.118Z,26.57
2019-01-27T09:46:54.210Z,12.78
2019-01-27T09:49:24.278Z,22.57
2019-01-27T09:51:54.337Z,17.53
2019-01-27T09:54:24.445Z,18.53
2019-01-27T09:56:57.068Z,22.23
2019-01-27T09:59:27.127Z,14.97
2019-01-27T10:01:57.219Z,23.40
2019-01-27T10:04:27.283Z,25.67
2019-01-27T10:06:57.333Z,29.53
2019-01-27T10:09:43.664Z,19.03
2019-01-27T10:12:16.180Z,22.13
2019-01-27T10:15:02.494Z,23.70
2019-01-27T10:17:35.303Z,27.00
2019-01-27T10:20:06.960Z,26.33
2019-01-27T10:22:37.112Z,21.00
2019-01-27T10:25:16.002Z,29.30
2019-01-27T10:27:42.068Z,29.80
2019-01-27T10:30:18.411Z,27.10
2019-01-27T10:32:51.460Z,22.20
2019-01-27T10:35:42.736Z,20.33
2019-01-27T10:38:14.043Z,27.87
2019-01-27T10:40:46.844Z,19.70
2019-01-27T10:43:16.899Z,19.17
2019-01-27T10:46:01.974Z,23.43
2019-01-27T10:48:37.731Z,26.30
2019-01-27T10:51:25.773Z,26.83
2019-01-27T10:53:55.826Z,30.67
2019-01-27T10:56:41.083Z,33.80
2019-01-27T10:59:13.842Z,27.23
2019-01-27T11:01:43.901Z,30.43
2019-01-27T11:04:16.761Z,29.77
2019-01-27T11:06:49.861Z,50.43
2019-01-27T11:09:35.888Z,37.80
2019-01-27T11:12:23.883Z,38.03
2019-01-27T11:14:56.678Z,35.17
2019-01-27T11:17:29.552Z,37.67
2019-01-27T11:20:02.642Z,30.97
2019-01-27T11:22:48.627Z,38.57
2019-01-27T11:25:33.912Z,34.63
2019-01-27T11:28:03.988Z,32.77
2019-01-27T11:30:39.959Z,31.43
2019-01-27T11:33:12.853Z,31.57
2019-01-27T11:35:48.771Z,27.70
2019-01-27T11:38:30.771Z,36.30
2019-01-27T11:41:00.879Z,24.23
2019-01-27T11:43:30.959Z,39.70
2019-01-27T11:46:18.113Z,24.60
2019-01-27T11:48:54.046Z,32.93
2019-01-27T11:51:24.408Z,35.60
2019-01-27T11:53:52.897Z,27.63
2019-01-27T11:56:21.390Z,41.80
2019-01-27T11:58:49.924Z,35.87
2019-01-27T12:01:18.425Z,31.83
2019-01-27T12:03:46.910Z,32.30
2019-01-27T12:06:16.431Z,40.57
2019-01-27T12:08:44.931Z,31.50
2019-01-27T12:11:13.414Z,26.73
2019-01-27T12:13:41.943Z,33.57
2019-01-27T12:16:10.435Z,34.10
2019-01-27T12:18:38.928Z,26.43
2019-01-27T12:21:07.454Z,36.80
2019-01-27T12:23:35.948Z,34.30
2019-01-27T12:26:04.435Z,29.50
2019-01-27T12:28:32.977Z,27.90
2019-01-27T12:31:01.477Z,24.13
2019-01-27T12:33:29.983Z,29.40
2019-01-27T12:35:58.507Z,28.03
2019-01-27T12:38:27.002Z,24.03
2019-01-27T12:40:55.495Z,30.53
2019-01-27T12:43:24.021Z,23.20
2019-01-27T12:45:52.533Z,27.60
2019-01-27T12:48:21.026Z,26.67
2019-01-27T12:50:50.567Z,29.07
2019-01-27T12:53:19.056Z,35.10
2019-01-27T12:55:47.535Z,22.80
2019-01-27T12:58:16.068Z,27.70
2019-01-27T13:00:47.969Z,29.13
2019-01-27T13:03:16.557Z,24.67
2019-01-27T13:05:45.106Z,30.83
2019-01-27T13:08:15.185Z,22.90
2019-01-27T13:10:43.681Z,31.57
2019-01-27T13:13:12.257Z,34.17
2019-01-27T13:15:40.705Z,22.90
2019-01-27T13:18:09.183Z,27.50
2019-01-27T13:20:37.704Z,26.27
2019-01-27T13:23:06.198Z,37.47
2019-01-27T13:25:34.688Z,31.63
2019-01-27T13:28:03.225Z,28.53
2019-01-27T13:30:31.864Z,33.57
2019-01-27T13:33:03.465Z,29.07
2019-01-27T13:35:32.065Z,36.50
2019-01-27T13:38:00.555Z,38.43
2019-01-27T13:40:29.641Z,35.40
2019-01-27T13:42:58.168Z,37.03
2019-01-27T13:45:32.794Z,33.87
2019-01-27T13:48:01.275Z,33.57
2019-01-27T13:50:29.795Z,41.10
2019-01-27T13:52:58.349Z,34.97
2019-01-27T13:55:31.239Z,33.47
2019-01-27T13:57:59.756Z,30.07
2019-01-27T14:00:34.067Z,32.27
2019-01-27T14:03:02.555Z,35.93
2019-01-27T14:05:31.080Z,20.03
2019-01-27T14:08:01.130Z,25.83
2019-01-27T14:10:30.618Z,28.27
2019-01-27T14:12:59.177Z,39.93
2019-01-27T14:15:30.289Z,29.03
2019-01-27T14:17:58.800Z,30.13
2019-01-27T14:20:27.325Z,25.70
2019-01-27T14:22:55.827Z,39.20
2019-01-27T14:25:26.213Z,39.57
2019-01-27T14:27:54.761Z,39.23
2019-01-27T14:30:31.627Z,39.60
2019-01-27T14:33:01.100Z,38.43
2019-01-27T14:35:29.579Z,33.97
2019-01-27T14:37:58.057Z,39.57
2019-01-27T14:40:28.700Z,45.60
2019-01-27T14:42:57.191Z,41.63
2019-01-27T14:45:27.973Z,40.77
2019-01-27T14:47:56.502Z,39.27
2019-01-27T14:50:36.598Z,37.23
2019-01-27T14:53:06.603Z,29.10
2019-01-27T14:55:35.104Z,40.53
2019-01-27T14:58:03.604Z,32.87
2019-01-27T15:00:36.442Z,40.50
2019-01-27T15:03:05.901Z,36.10
2019-01-27T15:05:34.397Z,30.87
2019-01-27T15:08:02.932Z,35.27
2019-01-27T15:10:31.437Z,39.63
2019-01-27T15:12:59.925Z,41.63
2019-01-27T15:15:28.458Z,29.60
2019-01-27T15:17:56.955Z,23.40
2019-01-27T15:20:34.219Z,23.40
2019-01-27T15:23:04.278Z,22.77
2019-01-27T15:25:32.757Z,21.57
2019-01-27T15:28:01.301Z,27.50
2019-01-27T15:30:39.398Z,25.37
2019-01-27T15:33:08.130Z,20.67
2019-01-27T15:35:41.064Z,22.97
2019-01-27T15:38:09.556Z,27.03
2019-01-27T15:40:38.091Z,22.67
2019-01-27T15:43:06.585Z,20.27
2019-01-27T15:45:35.072Z,22.23
2019-01-27T15:48:03.924Z,20.43
2019-01-27T15:50:34.312Z,20.43
2019-01-27T15:53:02.798Z,23.37
2019-01-27T15:55:31.327Z,20.53
2019-01-27T15:57:59.871Z,21.73
2019-01-27T16:00:30.831Z,20.77
2019-01-27T16:03:00.918Z,16.17
2019-01-27T16:05:29.400Z,20.43
2019-01-27T16:07:59.458Z,18.53
2019-01-27T16:10:28.283Z,18.70
2019-01-27T16:12:57.582Z,20.83
2019-01-27T16:15:36.341Z,22.03
2019-01-27T16:18:06.693Z,19.87
2019-01-27T16:20:35.184Z,21.07
2019-01-27T16:23:21.226Z,22.50
2019-01-27T16:25:49.714Z,23.47
2019-01-27T16:28:18.209Z,26.03
2019-01-27T16:31:00.447Z,26.23
2019-01-27T16:33:42.349Z,23.53
2019-01-27T16:36:10.883Z,25.27
2019-01-27T16:38:39.376Z,23.90
2019-01-27T16:41:07.862Z,28.00
2019-01-27T16:43:40.455Z,26.80
2019-01-27T16:46:08.959Z,15.93
2019-01-27T16:48:37.452Z,28.87
2019-01-27T16:51:05.971Z,24.63
2019-01-27T16:53:37.182Z,21.77
2019-01-27T16:56:08.009Z,19.43
2019-01-27T16:58:39.331Z,18.43
2019-01-27T17:01:10.848Z,19.43
2019-01-27T17:03:40.905Z,23.40
2019-01-27T17:06:09.447Z,23.23
2019-01-27T17:08:37.935Z,22.23
2019-01-27T17:11:06.422Z,30.33
2019-01-27T17:13:36.137Z,32.47
2019-01-27T17:16:06.274Z,28.73
2019-01-27T17:18:34.867Z,37.33
2019-01-27T17:21:03.398Z,39.50
2019-01-27T17:23:31.888Z,27.60
2019-01-27T17:26:00.385Z,37.53
2019-01-27T17:28:29.885Z,39.23
2019-01-27T17:30:58.492Z,37.67
2019-01-27T17:33:28.550Z,46.23
2019-01-27T17:35:57.075Z,65.47
2019-01-27T17:38:28.540Z,50.57
2019-01-27T17:40:57.042Z,54.90
2019-01-27T17:43:25.575Z,60.40
2019-01-27T17:45:54.075Z,56.13
2019-01-27T17:48:22.572Z,49.80
2019-01-27T17:50:51.109Z,45.30
2019-01-27T17:53:19.605Z,36.10
2019-01-27T17:55:48.100Z,32.73
2019-01-27T17:58:21.318Z,32.43
2019-01-27T18:01:10.594Z,29.37
2019-01-27T18:03:46.161Z,28.40
2019-01-27T18:06:18.916Z,26.20
2019-01-27T18:08:48.981Z,20.37
2019-01-27T18:11:31.238Z,32.90
2019-01-27T18:14:04.369Z,27.70
2019-01-27T18:16:32.861Z,38.47
2019-01-27T18:19:01.381Z,41.30
2019-01-27T18:21:29.876Z,47.30
2019-01-27T18:23:59.929Z,38.07
2019-01-27T18:26:28.472Z,59.10
2019-01-27T18:28:57.074Z,45.47
2019-01-27T18:31:25.573Z,32.13
2019-01-27T18:33:55.680Z,40.33
2019-01-27T18:36:24.166Z,36.60
2019-01-27T18:38:52.658Z,32.93
2019-01-27T18:41:21.185Z,43.23
2019-01-27T18:43:49.663Z,42.27
2019-01-27T18:46:20.174Z,36.83
2019-01-27T18:48:50.275Z,37.33
2019-01-27T18:51:18.753Z,33.00
2019-01-27T18:53:51.853Z,36.20
2019-01-27T18:56:21.919Z,39.47
2019-01-27T18:59:10.816Z,36.30
2019-01-27T19:01:58.566Z,32.20
2019-01-27T19:04:28.629Z,37.90
2019-01-27T19:06:58.695Z,35.53
2019-01-27T19:09:34.533Z,37.67
2019-01-27T19:12:04.592Z,38.83
2019-01-27T19:14:43.635Z,36.43
2019-01-27T19:17:17.985Z,52.77
2019-01-27T19:20:07.845Z,54.40
2019-01-27T19:22:43.718Z,58.57
2019-01-27T19:25:30.989Z,30.10
2019-01-27T19:28:21.484Z,42.93
2019-01-27T19:30:54.599Z,33.23
2019-01-27T19:33:35.031Z,40.67
2019-01-27T19:36:08.094Z,32.07
2019-01-27T19:38:54.174Z,46.20
2019-01-27T19:41:24.282Z,38.42
2019-01-27T19:44:00.344Z,46.40
2019-01-27T19:46:36.193Z,39.70
2019-01-27T19:49:07.815Z,42.27
2019-01-27T19:51:55.826Z,31.43
2019-01-27T19:54:30.478Z,34.00
2019-01-27T19:57:03.390Z,38.33
2019-01-27T19:59:33.452Z,43.87
2019-01-27T20:02:19.242Z,30.40
2019-01-27T20:04:56.658Z,44.88
2019-01-27T20:07:26.808Z,32.47
2019-01-27T20:10:02.620Z,53.67
2019-01-27T20:12:32.727Z,31.37
2019-01-27T20:15:05.292Z,34.83
2019-01-27T20:17:39.846Z,31.27
2019-01-27T20:20:18.995Z,40.50
2019-01-27T20:22:58.076Z,26.03
2019-01-27T20:25:46.075Z,34.65
2019-01-27T20:28:27.861Z,30.10
2019-01-27T20:31:00.674Z,33.40
2019-01-27T20:33:33.366Z,38.30
2019-01-27T20:36:09.493Z,33.55
2019-01-27T20:38:45.807Z,30.88
2019-01-27T20:41:15.869Z,31.50
2019-01-27T20:43:45.943Z,23.47
2019-01-27T20:46:16.037Z,35.87
2019-01-27T20:49:02.258Z,29.50
2019-01-27T20:51:32.355Z,36.27
2019-01-27T20:54:02.422Z,31.07
2019-01-27T20:56:35.459Z,40.30
2019-01-27T20:59:24.584Z,35.70
2019-01-27T21:01:54.644Z,30.13
2019-01-27T21:04:41.306Z,28.27
2019-01-27T21:07:11.360Z,60.03
2019-01-27T21:09:43.993Z,38.53
2019-01-27T21:12:17.081Z,39.63
2019-01-27T21:14:47.152Z,42.40
2019-01-27T21:17:20.201Z,32.97
2019-01-27T21:19:48.742Z,24.27
2019-01-27T21:22:17.234Z,25.07
2019-01-27T21:24:45.727Z,23.70
2019-01-27T21:27:17.018Z,27.67
2019-01-27T21:29:45.502Z,26.33
2019-01-27T21:32:13.994Z,33.87
2019-01-27T21:34:42.533Z,30.40
2019-01-27T21:37:11.019Z,27.33
2019-01-27T21:39:39.509Z,44.07
2019-01-27T21:42:08.046Z,40.78
2019-01-27T21:44:36.527Z,45.70
2019-01-27T21:47:05.024Z,38.40
2019-01-27T21:49:33.551Z,31.97
2019-01-27T21:52:02.052Z,25.95
2019-01-27T21:54:31.666Z,30.27
2019-01-27T21:57:00.192Z,31.30
2019-01-27T21:59:28.693Z,28.12
2019-01-27T22:01:57.184Z,36.17
2019-01-27T22:04:26.580Z,29.87
2019-01-27T22:06:55.080Z,36.83
2019-01-27T22:09:23.583Z,32.17
2019-01-27T22:11:52.117Z,27.23
2019-01-27T22:14:20.623Z,31.62
2019-01-27T22:16:48.913Z,28.05
2019-01-27T22:19:17.450Z,24.65
2019-01-27T22:21:45.750Z,30.10
2019-01-27T22:24:14.236Z,34.53
2019-01-27T22:26:42.542Z,34.53
2019-01-27T22:29:10.830Z,31.90
2019-01-27T22:31:41.945Z,34.30
2019-01-27T22:34:10.330Z,35.77
2019-01-27T22:36:38.747Z,27.43
2019-01-27T22:39:08.267Z,27.80
2019-01-27T22:41:36.666Z,33.13
2019-01-27T22:44:05.118Z,25.50
2019-01-27T22:46:33.407Z,24.87
2019-01-27T22:49:01.725Z,28.10
2019-01-27T22:51:30.015Z,26.62
2019-01-27T22:54:00.802Z,30.13
2019-01-27T22:56:29.127Z,27.17
2019-01-27T22:58:57.416Z,30.82
2019-01-27T23:01:25.781Z,30.55
2019-01-27T23:03:54.087Z,23.07
2019-01-27T23:06:23.219Z,30.50
2019-01-27T23:08:51.579Z,25.92
2019-01-27T23:11:20.510Z,15.20
2019-01-27T23:13:48.844Z,32.57
2019-01-27T23:16:18.179Z,20.97
2019-01-27T23:18:46.594Z,23.07
2019-01-27T23:21:14.883Z,20.60
2019-01-27T23:23:44.856Z,29.20
2019-01-27T23:26:13.178Z,27.65
2019-01-27T23:28:41.596Z,27.70
2019-01-27T23:31:09.951Z,32.57
2019-01-27T23:33:38.283Z,38.02
2019-01-27T23:36:06.571Z,30.13
2019-01-27T23:38:34.924Z,30.17
2019-01-27T23:41:03.322Z,35.10
2019-01-27T23:43:34.511Z,24.17
2019-01-27T23:46:02.870Z,28.80
2019-01-27T23:48:31.186Z,44.03
2019-01-27T23:51:01.174Z,41.37
2019-01-27T23:53:29.537Z,22.47
2019-01-27T23:55:57.860Z,36.77
2019-01-27T23:58:26.208Z,25.47
